sensor_id;sensor_type;location;lat;lon;timestamp;temperature;humidity
71839;SHT31;59687;37.520;15.068;2022-12-29T00:02:17;11.10;85.25
71839;SHT31;59687;37.520;15.068;2022-12-29T00:04:49;11.12;85.37
71839;SHT31;59687;37.520;15.068;2022-12-29T00:07:25;11.14;85.35
71839;SHT31;59687;37.520;15.068;2022-12-29T00:09:52;11.14;85.38
71839;SHT31;59687;37.520;15.068;2022-12-29T00:12:19;11.11;85.46
71839;SHT31;59687;37.520;15.068;2022-12-29T00:14:46;11.12;85.58
71839;SHT31;59687;37.520;15.068;2022-12-29T00:17:31;11.07;85.54
71839;SHT31;59687;37.520;15.068;2022-12-29T00:19:58;11.06;85.66
71839;SHT31;59687;37.520;15.068;2022-12-29T00:22:44;11.04;85.59
71839;SHT31;59687;37.520;15.068;2022-12-29T00:25:29;11.00;85.68
71839;SHT31;59687;37.520;15.068;2022-12-29T00:28:16;10.97;85.76
71839;SHT31;59687;37.520;15.068;2022-12-29T00:31:21;10.93;85.90
71839;SHT31;59687;37.520;15.068;2022-12-29T00:34:09;10.90;85.82
71839;SHT31;59687;37.520;15.068;2022-12-29T00:36:55;10.89;85.82
71839;SHT31;59687;37.520;15.068;2022-12-29T00:39:22;10.83;85.83
71839;SHT31;59687;37.520;15.068;2022-12-29T00:42:09;10.81;85.97
71839;SHT31;59687;37.520;15.068;2022-12-29T00:44:56;10.80;85.91
71839;SHT31;59687;37.520;15.068;2022-12-29T00:47:23;10.79;85.72
71839;SHT31;59687;37.520;15.068;2022-12-29T00:49:51;10.77;85.57
71839;SHT31;59687;37.520;15.068;2022-12-29T00:52:18;10.76;85.41
71839;SHT31;59687;37.520;15.068;2022-12-29T00:54:45;10.72;85.36
71839;SHT31;59687;37.520;15.068;2022-12-29T00:57:13;10.69;85.27
71839;SHT31;59687;37.520;15.068;2022-12-29T00:59:41;10.67;85.18
71839;SHT31;59687;37.520;15.068;2022-12-29T01:02:09;10.64;85.03
71839;SHT31;59687;37.520;15.068;2022-12-29T01:04:37;10.64;84.90
71839;SHT31;59687;37.520;15.068;2022-12-29T01:07:04;10.60;84.77
71839;SHT31;59687;37.520;15.068;2022-12-29T01:09:33;10.60;84.35
71839;SHT31;59687;37.520;15.068;2022-12-29T01:12:18;10.57;84.39
71839;SHT31;59687;37.520;15.068;2022-12-29T01:15:09;10.56;84.11
71839;SHT31;59687;37.520;15.068;2022-12-29T01:17:36;10.53;84.07
71839;SHT31;59687;37.520;15.068;2022-12-29T01:20:04;10.52;83.89
71839;SHT31;59687;37.520;15.068;2022-12-29T01:22:35;10.49;83.70
71839;SHT31;59687;37.520;15.068;2022-12-29T01:25:02;10.49;83.34
71839;SHT31;59687;37.520;15.068;2022-12-29T01:30:25;10.49;82.64
71839;SHT31;59687;37.520;15.068;2022-12-29T01:32:54;10.49;82.48
71839;SHT31;59687;37.520;15.068;2022-12-29T01:35:20;10.44;82.41
71839;SHT31;59687;37.520;15.068;2022-12-29T01:37:49;10.42;82.14
71839;SHT31;59687;37.520;15.068;2022-12-29T01:40:15;10.42;82.06
71839;SHT31;59687;37.520;15.068;2022-12-29T01:42:53;10.39;81.66
71839;SHT31;59687;37.520;15.068;2022-12-29T01:45:21;10.41;81.50
71839;SHT31;59687;37.520;15.068;2022-12-29T01:47:54;10.38;81.42
71839;SHT31;59687;37.520;15.068;2022-12-29T01:53:06;10.42;81.01
71839;SHT31;59687;37.520;15.068;2022-12-29T01:55:48;10.41;81.09
71839;SHT31;59687;37.520;15.068;2022-12-29T01:58:21;10.38;80.70
71839;SHT31;59687;37.520;15.068;2022-12-29T02:00:49;10.37;80.96
71839;SHT31;59687;37.520;15.068;2022-12-29T02:03:17;10.35;80.90
71839;SHT31;59687;37.520;15.068;2022-12-29T02:05:51;10.41;80.74
71839;SHT31;59687;37.520;15.068;2022-12-29T02:08:24;10.35;80.55
71839;SHT31;59687;37.520;15.068;2022-12-29T02:10:56;10.37;80.40
71839;SHT31;59687;37.520;15.068;2022-12-29T02:13:28;10.32;80.42
71839;SHT31;59687;37.520;15.068;2022-12-29T02:16:13;10.32;80.20
71839;SHT31;59687;37.520;15.068;2022-12-29T02:30:27;10.25;79.75
71839;SHT31;59687;37.520;15.068;2022-12-29T02:33:11;10.25;79.69
71839;SHT31;59687;37.520;15.068;2022-12-29T02:44:13;10.24;79.45
71839;SHT31;59687;37.520;15.068;2022-12-29T02:47:15;10.24;79.38
71839;SHT31;59687;37.520;15.068;2022-12-29T02:49:51;10.28;79.33
71839;SHT31;59687;37.520;15.068;2022-12-29T02:52:28;10.27;79.14
71839;SHT31;59687;37.520;15.068;2022-12-29T02:54:58;10.25;79.05
71839;SHT31;59687;37.520;15.068;2022-12-29T03:10:52;10.28;78.57
71839;SHT31;59687;37.520;15.068;2022-12-29T03:16:35;10.31;78.39
71839;SHT31;59687;37.520;15.068;2022-12-29T03:22:00;10.34;77.99
71839;SHT31;59687;37.520;15.068;2022-12-29T03:24:57;10.35;78.08
71839;SHT31;59687;37.520;15.068;2022-12-29T03:27:39;10.37;77.93
71839;SHT31;59687;37.520;15.068;2022-12-29T03:30:08;10.35;78.00
71839;SHT31;59687;37.520;15.068;2022-12-29T03:32:40;10.34;77.94
71839;SHT31;59687;37.520;15.068;2022-12-29T03:35:15;10.38;77.96
71839;SHT31;59687;37.520;15.068;2022-12-29T03:40:48;10.35;78.08
71839;SHT31;59687;37.520;15.068;2022-12-29T03:43:17;10.34;78.20
71839;SHT31;59687;37.520;15.068;2022-12-29T03:45:45;10.32;78.48
71839;SHT31;59687;37.520;15.068;2022-12-29T03:48:12;10.29;78.88
71839;SHT31;59687;37.520;15.068;2022-12-29T03:50:41;10.27;79.16
71839;SHT31;59687;37.520;15.068;2022-12-29T03:53:08;10.27;79.03
71839;SHT31;59687;37.520;15.068;2022-12-29T03:55:37;10.32;79.13
71839;SHT31;59687;37.520;15.068;2022-12-29T03:58:06;10.31;79.11
71839;SHT31;59687;37.520;15.068;2022-12-29T04:01:02;10.32;79.10
71839;SHT31;59687;37.520;15.068;2022-12-29T04:03:33;10.34;79.18
71839;SHT31;59687;37.520;15.068;2022-12-29T04:06:03;10.34;79.06
71839;SHT31;59687;37.520;15.068;2022-12-29T04:08:53;10.29;78.99
71839;SHT31;59687;37.520;15.068;2022-12-29T04:11:21;10.35;78.78
71839;SHT31;59687;37.520;15.068;2022-12-29T04:13:54;10.31;78.73
71839;SHT31;59687;37.520;15.068;2022-12-29T04:16:24;10.32;78.74
71839;SHT31;59687;37.520;15.068;2022-12-29T04:18:53;10.32;78.61
71839;SHT31;59687;37.520;15.068;2022-12-29T04:21:21;10.32;78.29
71839;SHT31;59687;37.520;15.068;2022-12-29T04:23:48;10.37;78.03
71839;SHT31;59687;37.520;15.068;2022-12-29T04:26:16;10.37;77.79
71839;SHT31;59687;37.520;15.068;2022-12-29T04:28:58;10.38;77.79
71839;SHT31;59687;37.520;15.068;2022-12-29T04:31:39;10.35;77.85
71839;SHT31;59687;37.520;15.068;2022-12-29T04:34:06;10.35;77.73
71839;SHT31;59687;37.520;15.068;2022-12-29T04:36:39;10.35;77.67
71839;SHT31;59687;37.520;15.068;2022-12-29T04:39:07;10.32;77.77
71839;SHT31;59687;37.520;15.068;2022-12-29T04:41:38;10.35;77.76
71839;SHT31;59687;37.520;15.068;2022-12-29T04:44:07;10.34;77.68
71839;SHT31;59687;37.520;15.068;2022-12-29T04:47:07;10.38;77.92
71839;SHT31;59687;37.520;15.068;2022-12-29T04:49:50;10.37;78.04
71839;SHT31;59687;37.520;15.068;2022-12-29T04:52:37;10.38;78.22
71839;SHT31;59687;37.520;15.068;2022-12-29T04:55:05;10.37;78.52
71839;SHT31;59687;37.520;15.068;2022-12-29T04:57:34;10.34;78.62
71839;SHT31;59687;37.520;15.068;2022-12-29T05:00:06;10.44;78.58
71839;SHT31;59687;37.520;15.068;2022-12-29T05:02:36;10.41;78.39
71839;SHT31;59687;37.520;15.068;2022-12-29T05:05:05;10.41;77.96
71839;SHT31;59687;37.520;15.068;2022-12-29T05:07:35;10.39;78.06
71839;SHT31;59687;37.520;15.068;2022-12-29T05:10:03;10.31;78.07
71839;SHT31;59687;37.520;15.068;2022-12-29T05:12:32;10.27;78.54
71839;SHT31;59687;37.520;15.068;2022-12-29T05:15:00;10.12;78.91
71839;SHT31;59687;37.520;15.068;2022-12-29T05:17:30;10.01;79.24
71839;SHT31;59687;37.520;15.068;2022-12-29T05:19:59;9.97;79.47
71839;SHT31;59687;37.520;15.068;2022-12-29T05:22:27;10.00;79.50
71839;SHT31;59687;37.520;15.068;2022-12-29T05:24:55;9.94;79.83
71839;SHT31;59687;37.520;15.068;2022-12-29T05:27:23;9.87;80.31
71839;SHT31;59687;37.520;15.068;2022-12-29T05:30:19;9.77;80.55
71839;SHT31;59687;37.520;15.068;2022-12-29T05:32:46;9.70;81.21
71839;SHT31;59687;37.520;15.068;2022-12-29T05:35:15;9.65;81.38
71839;SHT31;59687;37.520;15.068;2022-12-29T05:37:42;9.65;81.60
71839;SHT31;59687;37.520;15.068;2022-12-29T05:40:11;9.55;82.15
71839;SHT31;59687;37.520;15.068;2022-12-29T05:42:39;9.49;82.54
71839;SHT31;59687;37.520;15.068;2022-12-29T05:45:32;9.46;83.15
71839;SHT31;59687;37.520;15.068;2022-12-29T05:48:24;9.39;83.45
71839;SHT31;59687;37.520;15.068;2022-12-29T05:51:15;9.32;84.02
71839;SHT31;59687;37.520;15.068;2022-12-29T05:53:47;9.30;84.08
71839;SHT31;59687;37.520;15.068;2022-12-29T05:56:16;9.27;84.05
71839;SHT31;59687;37.520;15.068;2022-12-29T05:58:46;9.21;84.05
71839;SHT31;59687;37.520;15.068;2022-12-29T06:01:13;9.20;84.24
71839;SHT31;59687;37.520;15.068;2022-12-29T06:03:40;9.21;84.07
71839;SHT31;59687;37.520;15.068;2022-12-29T06:06:13;9.24;84.24
71839;SHT31;59687;37.520;15.068;2022-12-29T06:08:40;9.24;83.88
71839;SHT31;59687;37.520;15.068;2022-12-29T06:11:11;9.27;83.83
71839;SHT31;59687;37.520;15.068;2022-12-29T06:13:42;9.28;83.89
71839;SHT31;59687;37.520;15.068;2022-12-29T06:16:09;9.31;83.72
71839;SHT31;59687;37.520;15.068;2022-12-29T06:18:41;9.39;83.55
71839;SHT31;59687;37.520;15.068;2022-12-29T06:21:08;9.46;83.38
71839;SHT31;59687;37.520;15.068;2022-12-29T06:23:36;9.72;82.57
71839;SHT31;59687;37.520;15.068;2022-12-29T06:26:03;10.03;82.17
71839;SHT31;59687;37.520;15.068;2022-12-29T06:28:32;10.46;80.54
71839;SHT31;59687;37.520;15.068;2022-12-29T06:30:58;10.97;78.99
71839;SHT31;59687;37.520;15.068;2022-12-29T06:33:27;11.44;77.05
71839;SHT31;59687;37.520;15.068;2022-12-29T06:35:56;12.08;74.79
71839;SHT31;59687;37.520;15.068;2022-12-29T06:38:26;12.59;72.65
71839;SHT31;59687;37.520;15.068;2022-12-29T06:40:55;13.26;70.68
71839;SHT31;59687;37.520;15.068;2022-12-29T06:43:42;13.94;68.50
71839;SHT31;59687;37.520;15.068;2022-12-29T06:46:41;14.61;65.39
71839;SHT31;59687;37.520;15.068;2022-12-29T06:49:10;15.16;62.98
71839;SHT31;59687;37.520;15.068;2022-12-29T06:51:40;15.74;61.29
71839;SHT31;59687;37.520;15.068;2022-12-29T06:54:07;16.27;59.33
71839;SHT31;59687;37.520;15.068;2022-12-29T06:56:35;16.57;58.40
71839;SHT31;59687;37.520;15.068;2022-12-29T06:59:01;16.93;57.26
71839;SHT31;59687;37.520;15.068;2022-12-29T07:01:32;17.37;55.87
71839;SHT31;59687;37.520;15.068;2022-12-29T07:04:03;17.81;54.58
71839;SHT31;59687;37.520;15.068;2022-12-29T07:06:30;18.23;53.66
71839;SHT31;59687;37.520;15.068;2022-12-29T07:08:57;18.75;52.38
71839;SHT31;59687;37.520;15.068;2022-12-29T07:11:25;19.12;50.94
71839;SHT31;59687;37.520;15.068;2022-12-29T07:13:52;19.64;49.70
71839;SHT31;59687;37.520;15.068;2022-12-29T07:16:19;20.06;48.38
71839;SHT31;59687;37.520;15.068;2022-12-29T07:18:47;20.41;47.61
71839;SHT31;59687;37.520;15.068;2022-12-29T07:21:14;20.83;47.67
71839;SHT31;59687;37.520;15.068;2022-12-29T07:23:41;21.19;45.77
71839;SHT31;59687;37.520;15.068;2022-12-29T07:26:13;21.62;45.17
71839;SHT31;59687;37.520;15.068;2022-12-29T07:28:46;21.75;44.38
71839;SHT31;59687;37.520;15.068;2022-12-29T07:31:19;22.20;44.15
71839;SHT31;59687;37.520;15.068;2022-12-29T07:33:50;22.49;43.42
71839;SHT31;59687;37.520;15.068;2022-12-29T07:36:19;22.80;42.18
71839;SHT31;59687;37.520;15.068;2022-12-29T07:38:46;23.03;42.10
71839;SHT31;59687;37.520;15.068;2022-12-29T07:41:15;23.38;41.32
71839;SHT31;59687;37.520;15.068;2022-12-29T07:43:42;23.49;39.99
71839;SHT31;59687;37.520;15.068;2022-12-29T07:46:33;23.58;40.58
71839;SHT31;59687;37.520;15.068;2022-12-29T07:49:03;23.80;40.26
71839;SHT31;59687;37.520;15.068;2022-12-29T07:51:31;24.14;39.50
71839;SHT31;59687;37.520;15.068;2022-12-29T07:53:58;24.35;39.11
71839;SHT31;59687;37.520;15.068;2022-12-29T07:56:27;24.47;39.17
71839;SHT31;59687;37.520;15.068;2022-12-29T07:58:54;24.66;38.53
71839;SHT31;59687;37.520;15.068;2022-12-29T08:01:22;24.97;38.08
71839;SHT31;59687;37.520;15.068;2022-12-29T08:03:49;25.21;37.01
71839;SHT31;59687;37.520;15.068;2022-12-29T08:06:21;25.32;36.25
71839;SHT31;59687;37.520;15.068;2022-12-29T08:08:48;25.15;36.03
71839;SHT31;59687;37.520;15.068;2022-12-29T08:11:15;25.13;36.01
71839;SHT31;59687;37.520;15.068;2022-12-29T08:13:43;24.76;36.23
71839;SHT31;59687;37.520;15.068;2022-12-29T08:16:10;25.13;36.55
71839;SHT31;59687;37.520;15.068;2022-12-29T08:18:37;25.46;35.60
71839;SHT31;59687;37.520;15.068;2022-12-29T08:21:05;25.77;35.18
71839;SHT31;59687;37.520;15.068;2022-12-29T08:23:34;25.94;35.53
71839;SHT31;59687;37.520;15.068;2022-12-29T08:26:05;26.18;35.94
71839;SHT31;59687;37.520;15.068;2022-12-29T08:28:33;25.93;34.98
71839;SHT31;59687;37.520;15.068;2022-12-29T08:31:01;25.62;35.21
71839;SHT31;59687;37.520;15.068;2022-12-29T08:33:29;26.04;34.75
71839;SHT31;59687;37.520;15.068;2022-12-29T08:36:03;25.77;35.24
71839;SHT31;59687;37.520;15.068;2022-12-29T08:38:32;25.76;35.72
71839;SHT31;59687;37.520;15.068;2022-12-29T08:41:00;25.72;35.52
71839;SHT31;59687;37.520;15.068;2022-12-29T08:43:31;25.76;35.24
71839;SHT31;59687;37.520;15.068;2022-12-29T08:45:59;26.03;34.88
71839;SHT31;59687;37.520;15.068;2022-12-29T08:48:26;26.00;35.24
71839;SHT31;59687;37.520;15.068;2022-12-29T08:50:53;26.98;34.14
71839;SHT31;59687;37.520;15.068;2022-12-29T08:53:27;27.43;33.20
71839;SHT31;59687;37.520;15.068;2022-12-29T08:55:59;27.28;33.74
71839;SHT31;59687;37.520;15.068;2022-12-29T08:58:33;27.59;33.56
71839;SHT31;59687;37.520;15.068;2022-12-29T09:01:01;27.63;33.23
71839;SHT31;59687;37.520;15.068;2022-12-29T09:03:28;27.14;33.20
71839;SHT31;59687;37.520;15.068;2022-12-29T09:06:16;27.45;32.58
71839;SHT31;59687;37.520;15.068;2022-12-29T09:08:44;26.32;33.55
71839;SHT31;59687;37.520;15.068;2022-12-29T09:11:21;25.30;34.52
71839;SHT31;59687;37.520;15.068;2022-12-29T09:13:49;25.48;34.35
71839;SHT31;59687;37.520;15.068;2022-12-29T09:16:16;25.02;35.22
71839;SHT31;59687;37.520;15.068;2022-12-29T09:18:44;25.23;35.12
71839;SHT31;59687;37.520;15.068;2022-12-29T09:21:12;25.27;34.92
71839;SHT31;59687;37.520;15.068;2022-12-29T09:23:40;25.24;35.06
71839;SHT31;59687;37.520;15.068;2022-12-29T09:26:07;25.41;34.87
71839;SHT31;59687;37.520;15.068;2022-12-29T09:28:36;25.75;34.07
71839;SHT31;59687;37.520;15.068;2022-12-29T09:31:04;26.14;33.74
71839;SHT31;59687;37.520;15.068;2022-12-29T09:33:31;26.66;32.12
71839;SHT31;59687;37.520;15.068;2022-12-29T09:36:01;27.37;31.65
71839;SHT31;59687;37.520;15.068;2022-12-29T09:38:31;28.34;29.76
71839;SHT31;59687;37.520;15.068;2022-12-29T09:41:18;28.97;28.52
71839;SHT31;59687;37.520;15.068;2022-12-29T09:46:44;28.81;28.49
71839;SHT31;59687;37.520;15.068;2022-12-29T09:49:35;28.07;29.08
71839;SHT31;59687;37.520;15.068;2022-12-29T09:52:14;27.31;30.07
71839;SHT31;59687;37.520;15.068;2022-12-29T09:55:14;26.76;30.61
71839;SHT31;59687;37.520;15.068;2022-12-29T09:57:47;27.04;30.67
71839;SHT31;59687;37.520;15.068;2022-12-29T10:00:18;27.04;30.80
71839;SHT31;59687;37.520;15.068;2022-12-29T10:02:51;27.63;30.26
71839;SHT31;59687;37.520;15.068;2022-12-29T10:08:27;28.49;28.45
71839;SHT31;59687;37.520;15.068;2022-12-29T10:11:01;29.59;27.64
71839;SHT31;59687;37.520;15.068;2022-12-29T10:16:15;28.81;28.50
71839;SHT31;59687;37.520;15.068;2022-12-29T10:24:19;28.19;29.42
71839;SHT31;59687;37.520;15.068;2022-12-29T10:26:51;28.81;28.77
71839;SHT31;59687;37.520;15.068;2022-12-29T10:29:24;29.00;28.29
71839;SHT31;59687;37.520;15.068;2022-12-29T10:32:00;29.53;27.78
71839;SHT31;59687;37.520;15.068;2022-12-29T10:34:36;30.11;27.35
71839;SHT31;59687;37.520;15.068;2022-12-29T10:37:11;31.59;25.90
71839;SHT31;59687;37.520;15.068;2022-12-29T10:39:50;30.57;26.85
71839;SHT31;59687;37.520;15.068;2022-12-29T10:42:43;28.44;29.30
71839;SHT31;59687;37.520;15.068;2022-12-29T10:45:16;29.74;27.63
71839;SHT31;59687;37.520;15.068;2022-12-29T10:48:03;29.65;27.81
71839;SHT31;59687;37.520;15.068;2022-12-29T10:50:33;28.22;29.73
71839;SHT31;59687;37.520;15.068;2022-12-29T10:53:02;26.62;31.72
71839;SHT31;59687;37.520;15.068;2022-12-29T10:55:35;26.53;32.19
71839;SHT31;59687;37.520;15.068;2022-12-29T10:58:05;25.92;33.39
71839;SHT31;59687;37.520;15.068;2022-12-29T11:00:33;27.55;31.18
71839;SHT31;59687;37.520;15.068;2022-12-29T11:05:46;28.59;29.76
71839;SHT31;59687;37.520;15.068;2022-12-29T11:08:24;27.37;30.81
71839;SHT31;59687;37.520;15.068;2022-12-29T11:11:08;27.22;32.24
71839;SHT31;59687;37.520;15.068;2022-12-29T11:13:48;30.70;27.66
71839;SHT31;59687;37.520;15.068;2022-12-29T11:16:27;31.16;26.92
71839;SHT31;59687;37.520;15.068;2022-12-29T11:19:01;32.08;25.87
71839;SHT31;59687;37.520;15.068;2022-12-29T11:21:35;33.11;24.32
71839;SHT31;59687;37.520;15.068;2022-12-29T11:24:28;33.03;24.52
71839;SHT31;59687;37.520;15.068;2022-12-29T11:27:23;32.77;24.98
71839;SHT31;59687;37.520;15.068;2022-12-29T11:29:53;30.86;26.95
71839;SHT31;59687;37.520;15.068;2022-12-29T11:32:28;30.62;27.01
71839;SHT31;59687;37.520;15.068;2022-12-29T11:34:58;30.18;27.37
71839;SHT31;59687;37.520;15.068;2022-12-29T11:37:31;32.83;24.54
71839;SHT31;59687;37.520;15.068;2022-12-29T11:40:16;31.63;25.12
71839;SHT31;59687;37.520;15.068;2022-12-29T11:42:51;33.62;23.99
71839;SHT31;59687;37.520;15.068;2022-12-29T11:45:27;32.96;24.65
71839;SHT31;59687;37.520;15.068;2022-12-29T11:48:14;34.76;22.83
71839;SHT31;59687;37.520;15.068;2022-12-29T11:50:53;33.35;24.26
71839;SHT31;59687;37.520;15.068;2022-12-29T11:53:36;35.41;22.08
71839;SHT31;59687;37.520;15.068;2022-12-29T11:56:09;32.72;24.76
71839;SHT31;59687;37.520;15.068;2022-12-29T11:58:40;34.07;23.53
71839;SHT31;59687;37.520;15.068;2022-12-29T12:01:36;32.11;25.63
71839;SHT31;59687;37.520;15.068;2022-12-29T12:04:14;32.70;24.92
71839;SHT31;59687;37.520;15.068;2022-12-29T12:09:54;35.55;21.54
71839;SHT31;59687;37.520;15.068;2022-12-29T12:12:38;34.93;22.50
71839;SHT31;59687;37.520;15.068;2022-12-29T12:15:13;34.11;23.29
71839;SHT31;59687;37.520;15.068;2022-12-29T12:17:56;34.34;22.86
71839;SHT31;59687;37.520;15.068;2022-12-29T12:20:42;34.39;22.56
71839;SHT31;59687;37.520;15.068;2022-12-29T12:34:05;31.83;25.62
71839;SHT31;59687;37.520;15.068;2022-12-29T12:39:47;32.96;23.06
71839;SHT31;59687;37.520;15.068;2022-12-29T12:46:09;33.45;22.79
71839;SHT31;59687;37.520;15.068;2022-12-29T13:22:13;23.30;48.55
71839;SHT31;59687;37.520;15.068;2022-12-29T13:30:30;22.69;49.60
71839;SHT31;59687;37.520;15.068;2022-12-29T13:41:38;21.38;49.81
71839;SHT31;59687;37.520;15.068;2022-12-29T13:44:14;22.03;48.94
71839;SHT31;59687;37.520;15.068;2022-12-29T13:46:44;22.54;49.88
71839;SHT31;59687;37.520;15.068;2022-12-29T13:49:17;23.51;48.30
71839;SHT31;59687;37.520;15.068;2022-12-29T13:52:03;23.96;48.20
71839;SHT31;59687;37.520;15.068;2022-12-29T14:00:20;23.31;48.45
71839;SHT31;59687;37.520;15.068;2022-12-29T14:03:15;23.25;47.98
71839;SHT31;59687;37.520;15.068;2022-12-29T14:08:35;23.31;47.69
71839;SHT31;59687;37.520;15.068;2022-12-29T14:11:08;23.23;50.05
71839;SHT31;59687;37.520;15.068;2022-12-29T14:13:45;22.27;52.77
71839;SHT31;59687;37.520;15.068;2022-12-29T14:16:32;22.06;55.86
71839;SHT31;59687;37.520;15.068;2022-12-29T14:19:11;22.14;54.79
71839;SHT31;59687;37.520;15.068;2022-12-29T14:21:40;22.20;53.12
71839;SHT31;59687;37.520;15.068;2022-12-29T14:26:55;21.38;57.83
71839;SHT31;59687;37.520;15.068;2022-12-29T14:31:58;20.61;61.65
71839;SHT31;59687;37.520;15.068;2022-12-29T14:34:38;19.96;63.30
71839;SHT31;59687;37.520;15.068;2022-12-29T14:37:31;19.69;64.01
71839;SHT31;59687;37.520;15.068;2022-12-29T14:40:24;19.37;66.21
71839;SHT31;59687;37.520;15.068;2022-12-29T14:42:55;18.60;68.11
71839;SHT31;59687;37.520;15.068;2022-12-29T14:45:32;18.32;67.63
71839;SHT31;59687;37.520;15.068;2022-12-29T14:48:43;17.93;70.00
71839;SHT31;59687;37.520;15.068;2022-12-29T14:51:38;17.44;72.35
71839;SHT31;59687;37.520;15.068;2022-12-29T14:57:04;17.19;74.87
71839;SHT31;59687;37.520;15.068;2022-12-29T14:59:33;17.10;75.60
71839;SHT31;59687;37.520;15.068;2022-12-29T15:02:24;17.08;76.23
71839;SHT31;59687;37.520;15.068;2022-12-29T15:04:53;16.81;77.51
71839;SHT31;59687;37.520;15.068;2022-12-29T15:07:21;16.57;77.98
71839;SHT31;59687;37.520;15.068;2022-12-29T15:09:56;16.40;79.31
71839;SHT31;59687;37.520;15.068;2022-12-29T15:12:47;16.26;80.41
71839;SHT31;59687;37.520;15.068;2022-12-29T15:15:19;16.04;81.36
71839;SHT31;59687;37.520;15.068;2022-12-29T15:18:11;16.01;81.37
71839;SHT31;59687;37.520;15.068;2022-12-29T15:20:38;15.91;82.29
71839;SHT31;59687;37.520;15.068;2022-12-29T15:23:14;15.82;82.44
71839;SHT31;59687;37.520;15.068;2022-12-29T15:25:59;15.70;82.77
71839;SHT31;59687;37.520;15.068;2022-12-29T15:28:40;15.54;84.01
71839;SHT31;59687;37.520;15.068;2022-12-29T15:31:24;15.43;84.29
71839;SHT31;59687;37.520;15.068;2022-12-29T15:34:09;15.35;84.56
71839;SHT31;59687;37.520;15.068;2022-12-29T15:36:40;15.29;84.61
71839;SHT31;59687;37.520;15.068;2022-12-29T15:39:29;15.23;85.57
71839;SHT31;59687;37.520;15.068;2022-12-29T15:42:05;15.15;85.04
71839;SHT31;59687;37.520;15.068;2022-12-29T15:44:39;15.16;85.20
71839;SHT31;59687;37.520;15.068;2022-12-29T15:47:22;15.19;85.33
71839;SHT31;59687;37.520;15.068;2022-12-29T15:49:53;15.16;85.38
71839;SHT31;59687;37.520;15.068;2022-12-29T15:52:23;15.22;85.08
71839;SHT31;59687;37.520;15.068;2022-12-29T15:54:52;15.18;85.25
71839;SHT31;59687;37.520;15.068;2022-12-29T15:57:29;15.20;85.22
71839;SHT31;59687;37.520;15.068;2022-12-29T15:59:58;15.18;85.47
71839;SHT31;59687;37.520;15.068;2022-12-29T16:02:29;15.05;86.06
71839;SHT31;59687;37.520;15.068;2022-12-29T16:04:58;15.03;86.10
71839;SHT31;59687;37.520;15.068;2022-12-29T16:07:53;14.99;86.07
71839;SHT31;59687;37.520;15.068;2022-12-29T16:12:51;14.98;86.25
71839;SHT31;59687;37.520;15.068;2022-12-29T16:15:21;14.94;86.37
71839;SHT31;59687;37.520;15.068;2022-12-29T16:17:52;14.99;86.27
71839;SHT31;59687;37.520;15.068;2022-12-29T16:20:41;15.01;86.25
71839;SHT31;59687;37.520;15.068;2022-12-29T16:23:18;15.03;85.72
71839;SHT31;59687;37.520;15.068;2022-12-29T16:25:48;14.98;86.08
71839;SHT31;59687;37.520;15.068;2022-12-29T16:28:19;14.99;86.25
71839;SHT31;59687;37.520;15.068;2022-12-29T16:30:46;15.02;86.20
71839;SHT31;59687;37.520;15.068;2022-12-29T16:33:39;15.03;86.22
71839;SHT31;59687;37.520;15.068;2022-12-29T16:39:24;15.01;86.32
71839;SHT31;59687;37.520;15.068;2022-12-29T16:41:54;14.98;86.45
71839;SHT31;59687;37.520;15.068;2022-12-29T16:44:23;14.89;86.63
71839;SHT31;59687;37.520;15.068;2022-12-29T16:49:40;14.81;87.02
71839;SHT31;59687;37.520;15.068;2022-12-29T16:52:22;14.74;87.19
71839;SHT31;59687;37.520;15.068;2022-12-29T16:54:59;14.66;87.32
71839;SHT31;59687;37.520;15.068;2022-12-29T16:57:31;14.57;87.46
71839;SHT31;59687;37.520;15.068;2022-12-29T17:00:06;14.56;87.70
71839;SHT31;59687;37.520;15.068;2022-12-29T17:02:35;14.49;87.89
71839;SHT31;59687;37.520;15.068;2022-12-29T17:05:17;14.43;87.89
71839;SHT31;59687;37.520;15.068;2022-12-29T17:07:48;14.40;88.28
71839;SHT31;59687;37.520;15.068;2022-12-29T17:10:17;14.36;88.43
71839;SHT31;59687;37.520;15.068;2022-12-29T17:12:47;14.39;88.14
71839;SHT31;59687;37.520;15.068;2022-12-29T17:15:25;14.33;88.15
71839;SHT31;59687;37.520;15.068;2022-12-29T17:17:56;14.32;88.31
71839;SHT31;59687;37.520;15.068;2022-12-29T17:20:28;14.30;88.50
71839;SHT31;59687;37.520;15.068;2022-12-29T17:22:57;14.33;88.69
71839;SHT31;59687;37.520;15.068;2022-12-29T17:25:31;14.32;88.60
71839;SHT31;59687;37.520;15.068;2022-12-29T17:30:33;14.25;88.79
71839;SHT31;59687;37.520;15.068;2022-12-29T17:33:06;14.19;88.81
71839;SHT31;59687;37.520;15.068;2022-12-29T17:35:36;14.15;89.08
71839;SHT31;59687;37.520;15.068;2022-12-29T17:38:16;14.08;89.07
71839;SHT31;59687;37.520;15.068;2022-12-29T17:40:44;14.02;89.51
71839;SHT31;59687;37.520;15.068;2022-12-29T17:43:13;13.95;89.47
71839;SHT31;59687;37.520;15.068;2022-12-29T17:45:41;13.88;89.52
71839;SHT31;59687;37.520;15.068;2022-12-29T17:48:15;13.80;89.46
71839;SHT31;59687;37.520;15.068;2022-12-29T17:50:47;13.73;89.61
71839;SHT31;59687;37.520;15.068;2022-12-29T17:53:19;13.67;89.82
71839;SHT31;59687;37.520;15.068;2022-12-29T17:55:47;13.63;90.01
71839;SHT31;59687;37.520;15.068;2022-12-29T17:58:19;13.57;89.88
71839;SHT31;59687;37.520;15.068;2022-12-29T18:00:49;13.53;90.01
71839;SHT31;59687;37.520;15.068;2022-12-29T18:03:35;13.47;90.06
71839;SHT31;59687;37.520;15.068;2022-12-29T18:06:04;13.43;90.17
71839;SHT31;59687;37.520;15.068;2022-12-29T18:08:34;13.39;90.21
71839;SHT31;59687;37.520;15.068;2022-12-29T18:11:02;13.32;90.12
71839;SHT31;59687;37.520;15.068;2022-12-29T18:13:31;13.26;90.21
71839;SHT31;59687;37.520;15.068;2022-12-29T18:16:10;13.22;90.39
71839;SHT31;59687;37.520;15.068;2022-12-29T18:18:38;13.19;90.41
71839;SHT31;59687;37.520;15.068;2022-12-29T18:21:13;13.14;90.52
71839;SHT31;59687;37.520;15.068;2022-12-29T18:23:42;13.08;90.73
71839;SHT31;59687;37.520;15.068;2022-12-29T18:26:19;13.05;90.84
71839;SHT31;59687;37.520;15.068;2022-12-29T18:28:56;13.01;91.07
71839;SHT31;59687;37.520;15.068;2022-12-29T18:31:32;13.00;91.09
71839;SHT31;59687;37.520;15.068;2022-12-29T18:34:06;12.97;91.22
71839;SHT31;59687;37.520;15.068;2022-12-29T18:36:33;12.94;91.43
71839;SHT31;59687;37.520;15.068;2022-12-29T18:39:00;12.92;91.53
71839;SHT31;59687;37.520;15.068;2022-12-29T18:41:29;12.90;91.59